createdAt,value
2023-05-05T00:01:15.959Z,101514.88
2023-05-05T00:03:42.907Z,101519.91
2023-05-05T00:06:09.615Z,101523.66
2023-05-05T00:08:36.675Z,101514.00
2023-05-05T00:11:03.587Z,101516.16
2023-05-05T00:13:30.400Z,101519.56
2023-05-05T00:15:58.479Z,101531.72
2023-05-05T00:18:25.193Z,101532.34
2023-05-05T00:20:52.070Z,101534.47
2023-05-05T00:23:19.735Z,101529.13
2023-05-05T00:25:46.689Z,101523.47
2023-05-05T00:28:13.427Z,101525.66
2023-05-05T00:30:40.852Z,101511.97
2023-05-05T00:33:08.951Z,101515.28
2023-05-05T00:35:35.746Z,101514.78
2023-05-05T00:38:02.469Z,101517.31
2023-05-05T00:40:29.334Z,101510.59
2023-05-05T00:42:56.226Z,101511.09
2023-05-05T00:45:22.984Z,101517.00
2023-05-05T00:47:52.466Z,101517.44
2023-05-05T00:50:22.959Z,101511.03
2023-05-05T00:52:50.879Z,101527.69
2023-05-05T00:55:18.389Z,101528.13
2023-05-05T00:57:46.058Z,101523.53
2023-05-05T01:00:13.737Z,101525.13
2023-05-05T01:02:40.794Z,101546.69
2023-05-05T01:05:08.490Z,101526.75
2023-05-05T01:07:45.433Z,101508.06
2023-05-05T01:10:20.646Z,101550.44
2023-05-05T01:12:52.876Z,101520.81
2023-05-05T01:15:27.548Z,101517.75
2023-05-05T01:17:59.630Z,101532.66
2023-05-05T01:20:33.273Z,101535.66
2023-05-05T01:23:05.992Z,101530.81
2023-05-05T01:25:57.268Z,101516.34
2023-05-05T01:28:38.205Z,101523.22
2023-05-05T01:31:12.665Z,101523.03
2023-05-05T01:33:45.878Z,101526.28
2023-05-05T01:36:17.698Z,101525.16
2023-05-05T01:38:46.026Z,101514.72
2023-05-05T01:41:17.380Z,101504.16
2023-05-05T01:43:48.471Z,101489.97
2023-05-05T01:46:16.567Z,101486.44
2023-05-05T01:48:46.443Z,101483.78
2023-05-05T01:51:15.736Z,101487.41
2023-05-05T01:53:42.984Z,101483.38
2023-05-05T01:56:12.112Z,101478.50
2023-05-05T01:58:40.548Z,101464.31
2023-05-05T02:01:08.548Z,101463.09
2023-05-05T02:03:37.737Z,101459.25
2023-05-05T02:06:08.259Z,101443.91
2023-05-05T02:08:37.936Z,101466.28
2023-05-05T02:11:05.680Z,101475.16
2023-05-05T02:13:32.896Z,101484.22
2023-05-05T02:16:00.249Z,101481.09
2023-05-05T02:18:27.494Z,101483.97
2023-05-05T02:20:54.494Z,101490.69
2023-05-05T02:23:22.894Z,101494.00
2023-05-05T02:25:53.071Z,101504.97
2023-05-05T02:28:23.015Z,101504.75
2023-05-05T02:30:56.127Z,101508.41
2023-05-05T02:33:25.553Z,101497.09
2023-05-05T02:35:54.267Z,101512.22
2023-05-05T02:38:28.666Z,101515.81
2023-05-05T02:41:02.429Z,101531.06
2023-05-05T02:43:31.532Z,101527.56
2023-05-05T02:45:58.524Z,101528.59
2023-05-05T02:48:25.858Z,101534.22
2023-05-05T02:50:54.552Z,101525.75
2023-05-05T02:53:29.285Z,101534.44
2023-05-05T02:56:05.933Z,101530.53
2023-05-05T02:58:42.221Z,101523.88
2023-05-05T03:01:25.599Z,101521.88
2023-05-05T03:04:00.986Z,101517.91
2023-05-05T03:06:29.665Z,101517.13
2023-05-05T03:09:05.685Z,101517.72
2023-05-05T03:11:36.907Z,101520.84
2023-05-05T03:14:10.076Z,101512.47
2023-05-05T03:16:39.775Z,101516.47
2023-05-05T03:19:10.289Z,101521.22
2023-05-05T03:21:37.604Z,101523.03
2023-05-05T03:24:14.713Z,101544.78
2023-05-05T03:26:43.837Z,101538.88
2023-05-05T03:29:11.117Z,101541.66
2023-05-05T03:31:39.795Z,101544.50
2023-05-05T03:34:06.916Z,101550.44
2023-05-05T03:36:40.314Z,101545.38
2023-05-05T03:39:10.355Z,101545.06
2023-05-05T03:41:39.224Z,101541.13
2023-05-05T03:44:08.739Z,101549.84
2023-05-05T03:46:36.861Z,101557.88
2023-05-05T03:49:05.486Z,101566.22
2023-05-05T03:51:32.989Z,101567.94
2023-05-05T03:54:00.265Z,101570.44
2023-05-05T03:56:27.363Z,101576.50
2023-05-05T03:58:55.458Z,101589.91
2023-05-05T04:01:22.480Z,101591.00
2023-05-05T04:03:49.264Z,101595.72
2023-05-05T04:06:16.122Z,101592.59
2023-05-05T04:08:42.958Z,101602.81
2023-05-05T04:11:09.834Z,101606.09
2023-05-05T04:13:36.700Z,101595.81
2023-05-05T04:16:05.178Z,101595.97
2023-05-05T04:18:32.177Z,101589.09
2023-05-05T04:20:59.296Z,101591.69
2023-05-05T04:23:26.673Z,101590.66
2023-05-05T04:25:53.896Z,101589.81
2023-05-05T04:28:21.772Z,101597.38
2023-05-05T04:30:49.110Z,101608.13
2023-05-05T04:33:17.492Z,101606.19
2023-05-05T04:35:46.256Z,101610.28
2023-05-05T04:38:13.086Z,101618.00
2023-05-05T04:40:40.400Z,101617.56
2023-05-05T04:43:08.622Z,101610.09
2023-05-05T04:45:36.609Z,101611.59
2023-05-05T04:48:03.702Z,101604.03
2023-05-05T04:50:33.263Z,101605.16
2023-05-05T04:53:00.224Z,101616.47
2023-05-05T04:55:27.268Z,101611.84
2023-05-05T04:57:54.043Z,101628.50
2023-05-05T05:00:20.981Z,101622.03
2023-05-05T05:02:47.802Z,101624.69
2023-05-05T05:05:14.568Z,101618.31
2023-05-05T05:07:42.961Z,101620.22
2023-05-05T05:10:10.498Z,101613.09
2023-05-05T05:12:37.532Z,101623.66
2023-05-05T05:15:05.521Z,101619.28
2023-05-05T05:17:32.488Z,101626.91
2023-05-05T05:20:00.335Z,101630.72
2023-05-05T05:22:28.049Z,101641.09
2023-05-05T05:24:56.242Z,101637.84
2023-05-05T05:27:23.103Z,101635.69
2023-05-05T05:29:52.294Z,101638.78
2023-05-05T05:32:19.105Z,101639.72
2023-05-05T05:34:46.069Z,101635.19
2023-05-05T05:37:13.270Z,101624.78
2023-05-05T05:39:42.654Z,101632.41
2023-05-05T05:42:12.261Z,101628.34
2023-05-05T05:44:39.644Z,101633.47
2023-05-05T05:47:06.575Z,101648.78
2023-05-05T05:49:33.561Z,101650.53
2023-05-05T05:52:01.184Z,101645.63
2023-05-05T05:54:28.501Z,101649.25
2023-05-05T05:56:55.511Z,101642.00
2023-05-05T05:59:23.715Z,101652.69
2023-05-05T06:01:50.519Z,101648.16
2023-05-05T06:04:17.404Z,101652.34
2023-05-05T06:06:44.218Z,101652.94
2023-05-05T06:09:11.037Z,101649.03
2023-05-05T06:11:38.076Z,101654.06
2023-05-05T06:14:06.078Z,101648.84
2023-05-05T06:16:34.405Z,101641.84
2023-05-05T06:19:05.050Z,101641.63
2023-05-05T06:21:32.001Z,101640.81
2023-05-05T06:23:59.099Z,101636.19
2023-05-05T06:26:26.270Z,101631.75
2023-05-05T06:28:53.191Z,101632.41
2023-05-05T06:31:19.957Z,101638.16
2023-05-05T06:33:48.323Z,101638.06
2023-05-05T06:36:15.087Z,101631.75
2023-05-05T06:38:42.267Z,101644.16
2023-05-05T06:41:09.048Z,101642.66
2023-05-05T06:43:35.871Z,101643.78
2023-05-05T06:46:07.734Z,101658.16
2023-05-05T06:48:34.560Z,101653.13
2023-05-05T06:51:03.872Z,101662.50
2023-05-05T06:53:31.122Z,101659.78
2023-05-05T06:55:57.822Z,101654.19
2023-05-05T06:58:25.061Z,101663.69
2023-05-05T07:00:51.996Z,101658.06
2023-05-05T07:03:19.133Z,101659.41
2023-05-05T07:05:45.996Z,101656.63
2023-05-05T07:08:14.170Z,101662.75
2023-05-05T07:10:40.958Z,101660.25
2023-05-05T07:15:56.785Z,101653.56
2023-05-05T07:18:23.472Z,101661.66
2023-05-05T07:20:50.235Z,101654.13
2023-05-05T07:23:18.453Z,101660.44
2023-05-05T07:25:45.378Z,101654.00
2023-05-05T07:28:12.207Z,101662.63
2023-05-05T07:30:38.934Z,101668.72
2023-05-05T07:33:05.680Z,101667.25
2023-05-05T07:35:32.593Z,101669.88
2023-05-05T07:37:59.291Z,101672.00
2023-05-05T07:40:27.697Z,101670.66
2023-05-05T07:42:54.444Z,101664.75
2023-05-05T07:45:21.256Z,101671.38
2023-05-05T07:47:48.129Z,101673.09
2023-05-05T07:50:15.096Z,101666.66
2023-05-05T07:52:46.588Z,101665.59
2023-05-05T07:55:16.788Z,101675.81
2023-05-05T07:57:45.266Z,101671.22
2023-05-05T08:00:13.296Z,101665.66
2023-05-05T08:02:40.278Z,101667.69
2023-05-05T08:05:08.384Z,101664.06
2023-05-05T08:07:35.338Z,101671.53
2023-05-05T08:10:02.207Z,101675.22
2023-05-05T08:12:29.130Z,101678.50
2023-05-05T08:14:57.271Z,101669.09
2023-05-05T08:17:24.172Z,101678.13
2023-05-05T08:19:52.207Z,101676.44
2023-05-05T08:22:19.010Z,101677.41
2023-05-05T08:24:45.725Z,101680.88
2023-05-05T08:27:12.504Z,101680.00
2023-05-05T08:29:39.340Z,101682.47
2023-05-05T08:32:07.784Z,101685.22
2023-05-05T08:34:34.518Z,101688.47
2023-05-05T08:37:01.250Z,101683.22
2023-05-05T08:39:28.014Z,101687.22
2023-05-05T08:41:54.803Z,101699.56
2023-05-05T08:44:21.527Z,101697.84
2023-05-05T08:46:49.812Z,101708.97
2023-05-05T08:49:18.916Z,101710.41
2023-05-05T08:51:46.744Z,101709.38
2023-05-05T08:54:18.161Z,101716.72
2023-05-05T08:56:47.182Z,101716.91
2023-05-05T08:59:15.901Z,101722.78
2023-05-05T09:01:44.168Z,101721.41
2023-05-05T09:04:11.217Z,101726.47
2023-05-05T09:06:39.930Z,101736.34
2023-05-05T09:09:06.954Z,101734.84
2023-05-05T09:11:34.468Z,101735.28
2023-05-05T09:16:45.932Z,101735.41
2023-05-05T09:19:12.736Z,101734.84
2023-05-05T09:21:47.340Z,101733.09
2023-05-05T09:24:14.078Z,101730.28
2023-05-05T09:26:42.622Z,101734.75
2023-05-05T09:29:09.898Z,101744.44
2023-05-05T09:31:37.259Z,101745.50
2023-05-05T09:34:14.447Z,101739.66
2023-05-05T09:36:44.490Z,101740.09
2023-05-05T09:39:14.282Z,101741.50
2023-05-05T09:45:35.755Z,101732.91
2023-05-05T09:48:02.767Z,101736.94
2023-05-05T09:50:29.661Z,101728.44
2023-05-05T09:52:59.217Z,101736.00
2023-05-05T09:55:26.130Z,101732.66
2023-05-05T09:57:52.982Z,101731.63
2023-05-05T10:00:20.792Z,101727.84
2023-05-05T10:02:47.772Z,101730.00
2023-05-05T10:09:19.802Z,101728.16
2023-05-05T10:11:47.134Z,101733.69
2023-05-05T10:14:18.606Z,101723.91
2023-05-05T10:16:48.405Z,101721.03
2023-05-05T10:19:16.335Z,101728.44
2023-05-05T10:21:47.212Z,101729.91
2023-05-05T10:24:20.582Z,101735.38
2023-05-05T10:26:52.151Z,101730.44
2023-05-05T10:29:27.846Z,101727.34
2023-05-05T10:31:58.678Z,101730.16
2023-05-05T10:34:31.080Z,101730.53
2023-05-05T10:36:57.946Z,101728.44
2023-05-05T10:39:26.378Z,101729.34
2023-05-05T10:41:54.606Z,101736.97
2023-05-05T10:44:22.932Z,101741.63
2023-05-05T10:46:50.093Z,101743.69
2023-05-05T10:49:25.035Z,101743.56
2023-05-05T10:51:57.889Z,101738.34
2023-05-05T10:54:30.677Z,101733.97
2023-05-05T10:57:00.607Z,101726.34
2023-05-05T10:59:40.640Z,101736.50
2023-05-05T11:02:25.003Z,101736.03
2023-05-05T11:05:11.872Z,101741.88
2023-05-05T11:07:38.761Z,101741.47
2023-05-05T11:10:07.642Z,101733.59
2023-05-05T11:13:19.612Z,101734.53
2023-05-05T11:15:46.780Z,101733.28
2023-05-05T11:18:32.197Z,101726.13
2023-05-05T11:21:06.706Z,101735.81
2023-05-05T11:23:33.714Z,101731.59
2023-05-05T11:26:00.484Z,101732.81
2023-05-05T11:28:30.054Z,101730.75
2023-05-05T11:31:18.724Z,101731.50
2023-05-05T11:33:45.706Z,101732.66
2023-05-05T11:36:13.736Z,101730.69
2023-05-05T11:38:52.715Z,101732.41
2023-05-05T11:41:30.725Z,101731.09
2023-05-05T11:44:10.848Z,101734.34
2023-05-05T11:46:39.506Z,101732.56
2023-05-05T11:49:07.435Z,101728.53
2023-05-05T11:51:34.313Z,101728.22
2023-05-05T11:54:01.059Z,101727.63
2023-05-05T11:56:27.873Z,101723.63
2023-05-05T11:59:09.163Z,101718.88
2023-05-05T12:01:39.935Z,101727.16
2023-05-05T12:04:07.009Z,101726.56
2023-05-05T12:06:33.944Z,101723.34
2023-05-05T12:09:01.140Z,101724.91
2023-05-05T12:11:27.845Z,101724.56
2023-05-05T12:14:07.909Z,101733.41
2023-05-05T12:16:34.666Z,101741.44
2023-05-05T12:19:07.659Z,101735.81
2023-05-05T12:21:35.331Z,101739.22
2023-05-05T12:24:02.269Z,101745.84
2023-05-05T12:30:33.737Z,101750.72
2023-05-05T12:33:01.560Z,101750.81
2023-05-05T12:35:30.429Z,101755.09
2023-05-05T12:37:57.211Z,101756.22
2023-05-05T12:40:43.514Z,101755.00
2023-05-05T12:43:10.351Z,101744.88
2023-05-05T12:45:37.048Z,101742.19
2023-05-05T12:48:21.656Z,101747.31
2023-05-05T12:50:49.711Z,101750.22
2023-05-05T12:53:21.061Z,101745.22
2023-05-05T12:55:47.822Z,101743.38
2023-05-05T12:58:14.542Z,101748.88
2023-05-05T13:00:41.441Z,101739.63
2023-05-05T13:03:18.892Z,101744.59
2023-05-05T13:05:46.020Z,101749.75
2023-05-05T13:08:14.586Z,101746.06
2023-05-05T13:10:56.376Z,101746.03
2023-05-05T13:13:23.087Z,101744.03
2023-05-05T13:15:49.814Z,101738.41
2023-05-05T13:18:16.504Z,101735.44
2023-05-05T13:20:43.220Z,101739.84
2023-05-05T13:23:09.917Z,101744.97
2023-05-05T13:25:37.972Z,101742.63
2023-05-05T13:28:05.107Z,101748.38
2023-05-05T13:30:31.790Z,101740.59
2023-05-05T13:32:58.578Z,101739.00
2023-05-05T13:35:25.396Z,101744.63
2023-05-05T13:37:52.222Z,101744.25
2023-05-05T13:40:18.939Z,101752.41
2023-05-05T13:42:47.044Z,101749.38
2023-05-05T13:45:13.803Z,101744.00
2023-05-05T13:47:40.547Z,101737.56
2023-05-05T13:50:08.061Z,101735.00
2023-05-05T13:52:34.793Z,101738.41
2023-05-05T13:55:01.536Z,101732.66
2023-05-05T13:57:28.476Z,101735.69
2023-05-05T14:04:08.740Z,101730.94
2023-05-05T14:06:35.884Z,101731.19
2023-05-05T14:09:03.050Z,101731.94
2023-05-05T14:11:29.724Z,101730.63
2023-05-05T14:13:56.460Z,101724.06
2023-05-05T14:20:47.335Z,101729.25
2023-05-05T14:23:14.067Z,101725.84
2023-05-05T14:25:40.779Z,101727.28
2023-05-05T14:28:07.649Z,101739.75
2023-05-05T14:30:34.381Z,101728.28
2023-05-05T14:33:01.222Z,101732.56
2023-05-05T14:35:28.096Z,101732.94
2023-05-05T14:37:56.275Z,101736.81
2023-05-05T14:40:23.290Z,101729.56
2023-05-05T14:42:49.897Z,101723.34
2023-05-05T14:45:16.792Z,101717.75
2023-05-05T14:47:43.496Z,101719.72
2023-05-05T14:54:36.713Z,101721.91
2023-05-05T14:57:03.862Z,101710.69
2023-05-05T15:03:24.783Z,101718.78
2023-05-05T15:05:51.634Z,101719.38
2023-05-05T15:08:18.456Z,101719.91
2023-05-05T15:14:41.031Z,101719.41
2023-05-05T15:17:07.743Z,101713.56
2023-05-05T15:19:34.684Z,101714.00
2023-05-05T15:22:01.324Z,101713.91
2023-05-05T15:24:28.058Z,101713.59
2023-05-05T15:26:54.834Z,101708.00
2023-05-05T15:29:22.291Z,101717.84
2023-05-05T15:31:50.885Z,101709.06
2023-05-05T15:34:17.890Z,101698.84
2023-05-05T15:36:47.921Z,101706.09
2023-05-05T15:39:14.828Z,101713.25
2023-05-05T15:41:42.182Z,101712.19
2023-05-05T15:44:11.627Z,101710.44
2023-05-05T15:46:38.530Z,101706.34
2023-05-05T15:49:06.733Z,101713.41
2023-05-05T15:51:33.445Z,101710.16
2023-05-05T15:54:00.459Z,101700.31
2023-05-05T15:56:27.558Z,101703.25
2023-05-05T15:58:54.313Z,101696.41
2023-05-05T16:01:21.429Z,101695.25
2023-05-05T16:03:48.166Z,101701.47
2023-05-05T16:06:16.312Z,101685.97
2023-05-05T16:08:43.086Z,101690.75
2023-05-05T16:11:11.055Z,101693.13
2023-05-05T16:13:38.041Z,101682.19
2023-05-05T16:16:05.444Z,101683.94
2023-05-05T16:18:32.237Z,101680.63
2023-05-05T16:20:59.006Z,101680.47
2023-05-05T16:23:27.268Z,101682.41
2023-05-05T16:25:54.175Z,101685.28
2023-05-05T16:28:21.659Z,101674.88
2023-05-05T16:30:48.525Z,101679.53
2023-05-05T16:33:15.524Z,101665.00
2023-05-05T16:35:43.957Z,101666.31
2023-05-05T16:38:10.781Z,101673.19
2023-05-05T16:40:40.175Z,101676.84
2023-05-05T16:43:07.584Z,101677.56
2023-05-05T16:45:34.361Z,101674.59
2023-05-05T16:48:01.418Z,101678.34
2023-05-05T16:54:22.927Z,101662.09
2023-05-05T17:00:44.893Z,101669.41
2023-05-05T17:03:11.606Z,101657.44
2023-05-05T17:05:38.469Z,101662.78
2023-05-05T17:08:05.175Z,101667.34
2023-05-05T17:10:31.868Z,101654.19
2023-05-05T17:12:58.573Z,101664.00
2023-05-05T17:15:25.346Z,101658.25
2023-05-05T17:17:53.438Z,101668.22
2023-05-05T17:20:20.374Z,101668.22
2023-05-05T17:22:47.273Z,101664.41
2023-05-05T17:25:13.994Z,101662.31
2023-05-05T17:27:40.745Z,101665.81
2023-05-05T17:30:09.033Z,101668.53
2023-05-05T17:32:35.709Z,101663.09
2023-05-05T17:35:04.042Z,101665.22
2023-05-05T17:37:30.725Z,101669.00
2023-05-05T17:39:57.508Z,101658.66
2023-05-05T17:42:24.236Z,101656.06
2023-05-05T17:44:50.920Z,101660.28
2023-05-05T17:47:17.806Z,101656.25
2023-05-05T17:49:44.509Z,101660.22
2023-05-05T17:52:12.717Z,101665.47
2023-05-05T17:54:39.408Z,101674.34
2023-05-05T17:57:06.257Z,101669.31
2023-05-05T17:59:32.996Z,101676.34
2023-05-05T18:01:59.884Z,101676.50
2023-05-05T18:08:31.464Z,101683.81
2023-05-05T18:10:58.167Z,101687.94
2023-05-05T18:13:24.988Z,101685.72
2023-05-05T18:19:55.515Z,101686.69
2023-05-05T18:22:22.209Z,101700.22
2023-05-05T18:28:55.084Z,101693.56
2023-05-05T18:31:29.001Z,101696.84
2023-05-05T18:33:55.829Z,101690.47
2023-05-05T18:40:26.039Z,101693.53
2023-05-05T18:42:52.732Z,101697.28
2023-05-05T18:49:24.483Z,101709.75
2023-05-05T18:51:51.206Z,101711.75
2023-05-05T18:54:17.980Z,101713.91
2023-05-05T18:56:44.710Z,101710.94
2023-05-05T18:59:11.452Z,101720.25
2023-05-05T19:01:38.142Z,101718.66
2023-05-05T19:04:08.517Z,101718.00
2023-05-05T19:06:41.036Z,101708.94
2023-05-05T19:09:07.835Z,101722.91
2023-05-05T19:11:34.569Z,101723.19
2023-05-05T19:14:01.348Z,101720.78
2023-05-05T19:16:30.045Z,101729.09
2023-05-05T19:18:56.884Z,101724.88
2023-05-05T19:21:23.576Z,101733.56
2023-05-05T19:23:51.697Z,101740.03
2023-05-05T19:26:18.415Z,101741.69
2023-05-05T19:28:45.129Z,101747.75
2023-05-05T19:31:11.862Z,101741.44
2023-05-05T19:33:38.734Z,101750.97
2023-05-05T19:36:05.900Z,101744.66
2023-05-05T19:38:32.658Z,101737.97
2023-05-05T19:41:00.915Z,101741.94
2023-05-05T19:43:27.756Z,101741.94
2023-05-05T19:45:54.562Z,101751.16
2023-05-05T19:48:21.517Z,101747.50
2023-05-05T19:50:48.293Z,101749.78
2023-05-05T19:53:15.023Z,101757.41
2023-05-05T19:55:41.930Z,101761.78
2023-05-05T19:58:10.016Z,101772.44
2023-05-05T20:00:36.745Z,101772.44
2023-05-05T20:03:03.510Z,101778.72
2023-05-05T20:05:30.261Z,101779.94
2023-05-05T20:07:57.124Z,101769.22
2023-05-05T20:10:23.901Z,101775.63
2023-05-05T20:12:50.649Z,101780.53
2023-05-05T20:15:20.517Z,101778.31
2023-05-05T20:17:48.032Z,101779.84
2023-05-05T20:20:17.286Z,101781.50
2023-05-05T20:22:44.599Z,101773.94
2023-05-05T20:25:11.401Z,101771.28
2023-05-05T20:27:38.274Z,101764.41
2023-05-05T20:30:06.459Z,101778.81
2023-05-05T20:32:34.932Z,101771.19
2023-05-05T20:35:02.217Z,101757.81
2023-05-05T20:37:29.036Z,101773.66
2023-05-05T20:39:55.751Z,101773.84
2023-05-05T20:42:22.466Z,101783.09
2023-05-05T20:44:49.192Z,101761.44
2023-05-05T20:47:15.879Z,101777.78
2023-05-05T20:49:43.979Z,101776.94
2023-05-05T20:52:10.682Z,101789.16
2023-05-05T20:54:37.388Z,101782.78
2023-05-05T20:57:04.283Z,101786.13
2023-05-05T20:59:31.162Z,101784.81
2023-05-05T21:01:58.011Z,101776.59
2023-05-05T21:04:24.805Z,101786.72
2023-05-05T21:06:52.984Z,101791.63
2023-05-05T21:09:19.764Z,101779.31
2023-05-05T21:11:46.477Z,101778.03
2023-05-05T21:14:13.207Z,101777.22
2023-05-05T21:16:40.007Z,101788.53
2023-05-05T21:19:06.958Z,101787.16
2023-05-05T21:21:33.733Z,101788.34
2023-05-05T21:24:02.226Z,101780.13
2023-05-05T21:26:29.005Z,101788.28
2023-05-05T21:28:55.699Z,101782.84
2023-05-05T21:31:22.822Z,101787.06
2023-05-05T21:33:49.779Z,101786.97
2023-05-05T21:36:16.998Z,101790.13
2023-05-05T21:38:43.745Z,101783.38
2023-05-05T21:41:11.841Z,101785.56
2023-05-05T21:43:38.608Z,101782.34
2023-05-05T21:46:05.990Z,101786.72
2023-05-05T21:48:32.889Z,101788.44
2023-05-05T21:50:59.677Z,101779.53
2023-05-05T21:53:26.540Z,101781.31
2023-05-05T21:55:53.416Z,101788.25
2023-05-05T21:58:23.221Z,101781.94
2023-05-05T22:00:50.324Z,101771.59
2023-05-05T22:03:17.472Z,101772.78
2023-05-05T22:05:44.348Z,101767.06
2023-05-05T22:08:11.254Z,101773.31
2023-05-05T22:10:38.159Z,101764.56
2023-05-05T22:13:05.055Z,101757.34
2023-05-05T22:15:45.347Z,101748.13
2023-05-05T22:18:12.987Z,101761.25
2023-05-05T22:20:40.112Z,101753.25
2023-05-05T22:23:06.954Z,101754.59
2023-05-05T22:25:33.702Z,101754.09
2023-05-05T22:28:00.707Z,101763.25
2023-05-05T22:30:27.923Z,101760.97
2023-05-05T22:32:56.433Z,101761.31
2023-05-05T22:35:23.376Z,101760.03
2023-05-05T22:37:50.245Z,101759.78
2023-05-05T22:40:17.606Z,101756.00
2023-05-05T22:42:44.382Z,101754.78
2023-05-05T22:45:16.244Z,101758.50
2023-05-05T22:47:43.383Z,101758.38
2023-05-05T22:50:11.884Z,101754.78
2023-05-05T22:52:38.639Z,101751.63
2023-05-05T22:55:05.863Z,101749.81
2023-05-05T22:57:34.866Z,101751.59
2023-05-05T23:00:02.207Z,101758.22
2023-05-05T23:02:29.040Z,101756.00
2023-05-05T23:04:55.837Z,101756.69
2023-05-05T23:07:23.976Z,101764.59
2023-05-05T23:09:50.690Z,101743.34
2023-05-05T23:40:53.645Z,101740.19
2023-05-05T23:59:32.549Z,101735.25
